Time;durP1;ratioP1;P1;durP2;ratioP2;P2;SDS_P1;SDS_P2;PMS_P1;PMS_P2;Temp;Humidity;BMP_temperature;BMP_pressure;BME280_temperature;BME280_humidity;BME280_pressure;Samples;Min_cycle;Max_cycle;Signal;HPM_P1;HPM_P2
2023/06/09 00:02:06;;;;;;;;;;;19.70;99.90;;;;;;5058992;28;19948;-59
2023/06/09 00:04:33;;;;;;;;;;;19.70;99.90;;;;;;5058705;28;20267;-59
2023/06/09 00:07:01;;;;;;;;;;;19.70;99.90;;;;;;5058946;28;19908;-59
2023/06/09 00:09:28;;;;;;;;;;;19.70;99.90;;;;;;5058713;28;19959;-59
2023/06/09 00:11:53;;;;;;;;;;;19.70;99.90;;;;;;5058424;28;19955;-59
2023/06/09 00:14:19;;;;;;;;;;;19.70;99.90;;;;;;5058283;28;19932;-59
2023/06/09 00:16:48;;;;;;;;;;;19.70;99.90;;;;;;5058590;28;20364;-59
2023/06/09 00:19:15;;;;;;;;;;;19.70;99.90;;;;;;5058748;28;19999;-59
2023/06/09 00:21:44;;;;;;;;;;;19.70;99.90;;;;;;5058681;28;20292;-59
2023/06/09 00:24:10;;;;;;;;;;;19.70;99.90;;;;;;5058228;28;19916;-59
2023/06/09 00:26:35;;;;;;;;;;;19.70;99.90;;;;;;5058365;28;19909;-59
2023/06/09 00:29:01;;;;;;;;;;;19.70;99.90;;;;;;5058514;28;19908;-59
2023/06/09 00:31:46;;;;;;;;;;;19.70;99.90;;;;;;5058533;28;19916;-59
2023/06/09 00:34:12;;;;;;;;;;;19.60;99.90;;;;;;5055236;28;19909;-59
2023/06/09 00:36:38;;;;;;;;;;;19.60;99.90;;;;;;5058594;28;19913;-59
2023/06/09 00:39:04;;;;;;;;;;;19.60;99.90;;;;;;5058553;28;19920;-59
2023/06/09 00:41:29;;;;;;;;;;;19.60;99.90;;;;;;5058166;28;20264;-59
2023/06/09 00:43:55;;;;;;;;;;;19.60;99.90;;;;;;5058364;28;19908;-59
2023/06/09 00:46:21;;;;;;;;;;;19.50;99.90;;;;;;5058146;28;20420;-59
2023/06/09 00:48:47;;;;;;;;;;;19.50;99.90;;;;;;5058289;28;19976;-59
2023/06/09 00:51:13;;;;;;;;;;;19.50;99.90;;;;;;5058301;28;19952;-59
2023/06/09 00:53:38;;;;;;;;;;;19.50;99.90;;;;;;5058176;28;19909;-59
2023/06/09 00:56:05;;;;;;;;;;;19.50;99.90;;;;;;5058423;28;20358;-59
2023/06/09 00:58:31;;;;;;;;;;;19.50;99.90;;;;;;5057687;28;19912;-59
2023/06/09 01:00:58;;;;;;;;;;;19.40;99.90;;;;;;5058151;28;19913;-59
2023/06/09 01:03:26;;;;;;;;;;;19.40;99.90;;;;;;5057810;28;20300;-59
2023/06/09 01:06:09;;;;;;;;;;;19.40;99.90;;;;;;5057779;28;20004;-59
2023/06/09 01:08:37;;;;;;;;;;;19.40;99.90;;;;;;5057424;28;20394;-59
2023/06/09 01:11:15;;;;;;;;;;;19.30;99.90;;;;;;5057971;28;19909;-59
2023/06/09 01:13:47;;;;;;;;;;;19.30;99.90;;;;;;5057760;28;20429;-59
2023/06/09 01:16:20;;;;;;;;;;;19.30;99.90;;;;;;5057916;28;19971;-59
2023/06/09 01:18:47;;;;;;;;;;;19.30;99.90;;;;;;5058205;28;19913;-59
2023/06/09 01:21:12;;;;;;;;;;;19.30;99.90;;;;;;5057642;28;20372;-59
2023/06/09 01:23:48;;;;;;;;;;;19.20;99.90;;;;;;5057428;28;19932;-59
2023/06/09 01:26:14;;;;;;;;;;;19.20;99.90;;;;;;5057735;28;19917;-59
2023/06/09 01:28:43;;;;;;;;;;;19.20;99.90;;;;;;5057887;28;19908;-59
2023/06/09 01:31:11;;;;;;;;;;;19.20;99.90;;;;;;5057584;28;19913;-59
2023/06/09 01:33:37;;;;;;;;;;;19.20;99.90;;;;;;5057417;28;20272;-59
2023/06/09 01:36:03;;;;;;;;;;;19.20;99.90;;;;;;5057767;28;19916;-59
2023/06/09 01:38:29;;;;;;;;;;;19.20;99.90;;;;;;5061497;28;19962;-59
2023/06/09 01:40:55;;;;;;;;;;;19.20;99.90;;;;;;5061589;28;20015;-59
2023/06/09 01:43:20;;;;;;;;;;;19.20;99.90;;;;;;5061577;28;19959;-59
2023/06/09 01:45:46;;;;;;;;;;;19.20;99.90;;;;;;5043563;28;19915;-59
2023/06/09 01:48:15;;;;;;;;;;;19.20;99.90;;;;;;5061785;28;19909;-59
2023/06/09 01:50:43;;;;;;;;;;;19.20;99.90;;;;;;5061453;28;20383;-59
2023/06/09 01:53:13;;;;;;;;;;;19.20;99.90;;;;;;5061661;28;19913;-59
2023/06/09 01:55:41;;;;;;;;;;;19.20;99.90;;;;;;5061333;28;19909;-59
2023/06/09 01:58:17;;;;;;;;;;;19.20;99.90;;;;;;5061017;28;20288;-59
2023/06/09 02:00:43;;;;;;;;;;;19.20;99.90;;;;;;5061432;28;20426;-59
2023/06/09 02:03:10;;;;;;;;;;;19.20;99.90;;;;;;5061683;28;20360;-59
2023/06/09 02:05:36;;;;;;;;;;;19.20;99.90;;;;;;5061095;28;20367;-59
2023/06/09 02:08:02;;;;;;;;;;;19.20;99.90;;;;;;5061444;28;19909;-59
2023/06/09 02:10:29;;;;;;;;;;;19.10;99.90;;;;;;5061468;28;19916;-59
2023/06/09 02:12:55;;;;;;;;;;;19.10;99.90;;;;;;5061040;28;19952;-59
2023/06/09 02:15:21;;;;;;;;;;;19.10;99.90;;;;;;5042881;28;20446;-59
2023/06/09 02:17:46;;;;;;;;;;;19.10;99.90;;;;;;5060874;28;19913;-59
2023/06/09 02:20:12;;;;;;;;;;;19.10;99.90;;;;;;5061141;28;19959;-59
2023/06/09 02:22:38;;;;;;;;;;;19.10;99.90;;;;;;5060820;28;20296;-59
2023/06/09 02:25:04;;;;;;;;;;;19.10;99.90;;;;;;5061043;28;19908;-59
2023/06/09 02:27:30;;;;;;;;;;;19.10;99.90;;;;;;5060673;28;19909;-59
2023/06/09 02:29:55;;;;;;;;;;;19.10;99.90;;;;;;5060931;28;19916;-59
2023/06/09 02:32:22;;;;;;;;;;;19.10;99.90;;;;;;5060696;28;19909;-59
2023/06/09 02:34:47;;;;;;;;;;;19.10;99.90;;;;;;5060848;28;19909;-59
2023/06/09 02:37:13;;;;;;;;;;;19.10;99.90;;;;;;5060535;28;19920;-59
2023/06/09 02:39:39;;;;;;;;;;;19.10;99.90;;;;;;5060806;28;19952;-59
2023/06/09 02:42:05;;;;;;;;;;;19.10;99.90;;;;;;5060953;28;19944;-59
2023/06/09 02:44:36;;;;;;;;;;;19.10;99.90;;;;;;5060575;28;19920;-59
2023/06/09 02:47:03;;;;;;;;;;;19.10;99.90;;;;;;5060460;28;19908;-59
2023/06/09 02:49:28;;;;;;;;;;;19.10;99.90;;;;;;5060703;28;19909;-59
2023/06/09 02:51:54;;;;;;;;;;;19.10;99.90;;;;;;5060499;28;19919;-59
2023/06/09 02:54:20;;;;;;;;;;;19.10;99.90;;;;;;5060256;28;19916;-59
2023/06/09 02:56:45;;;;;;;;;;;19.10;99.90;;;;;;5059836;28;19913;-59
2023/06/09 02:59:11;;;;;;;;;;;19.10;99.90;;;;;;5060009;28;20011;-59
2023/06/09 03:01:37;;;;;;;;;;;19.10;99.90;;;;;;5060294;28;20395;-59
2023/06/09 03:04:06;;;;;;;;;;;19.10;99.90;;;;;;5059960;28;19909;-59
2023/06/09 03:06:33;;;;;;;;;;;19.10;99.90;;;;;;5060392;28;19913;-59
2023/06/09 03:08:59;;;;;;;;;;;19.10;99.90;;;;;;5060153;28;19916;-59
2023/06/09 03:11:25;;;;;;;;;;;19.10;99.90;;;;;;5059954;28;19908;-59
2023/06/09 03:13:51;;;;;;;;;;;19.10;99.90;;;;;;5059936;28;19961;-59
2023/06/09 03:16:17;;;;;;;;;;;19.10;99.90;;;;;;5060076;28;19916;-59
2023/06/09 03:18:42;;;;;;;;;;;19.10;99.90;;;;;;5059764;28;19912;-59
2023/06/09 03:21:08;;;;;;;;;;;19.20;99.90;;;;;;5059969;28;19916;-59
2023/06/09 03:23:34;;;;;;;;;;;19.20;99.90;;;;;;5059737;28;19935;-59
2023/06/09 03:25:59;;;;;;;;;;;19.20;99.90;;;;;;5059634;28;19912;-59
2023/06/09 03:28:25;;;;;;;;;;;19.20;99.90;;;;;;5059366;28;20379;-59
2023/06/09 03:30:51;;;;;;;;;;;19.10;99.90;;;;;;5059953;28;19959;-59
2023/06/09 03:33:18;;;;;;;;;;;19.10;99.90;;;;;;5059697;28;19915;-59
2023/06/09 03:35:44;;;;;;;;;;;19.10;99.90;;;;;;5059708;28;19909;-59
2023/06/09 03:38:10;;;;;;;;;;;19.10;99.90;;;;;;5059694;28;19912;-59
2023/06/09 03:40:36;;;;;;;;;;;19.10;99.90;;;;;;5059585;28;19951;-59
2023/06/09 03:43:01;;;;;;;;;;;19.10;99.90;;;;;;5059864;28;19947;-59
2023/06/09 03:45:27;;;;;;;;;;;19.10;99.90;;;;;;5059284;28;19909;-59
2023/06/09 03:47:53;;;;;;;;;;;19.10;99.90;;;;;;5059577;28;19909;-59
2023/06/09 03:50:18;;;;;;;;;;;19.10;99.90;;;;;;5057944;28;19909;-59
2023/06/09 03:52:44;;;;;;;;;;;19.10;99.90;;;;;;5059595;28;19913;-59
2023/06/09 03:55:10;;;;;;;;;;;19.10;99.90;;;;;;5059277;28;19913;-59
2023/06/09 03:57:35;;;;;;;;;;;19.20;99.90;;;;;;5059207;28;19913;-59
2023/06/09 04:00:02;;;;;;;;;;;19.20;99.90;;;;;;5058564;28;19909;-59
2023/06/09 04:02:27;;;;;;;;;;;19.10;99.90;;;;;;5059063;28;19940;-59
2023/06/09 04:04:53;;;;;;;;;;;19.10;99.90;;;;;;5059283;28;19908;-59
2023/06/09 04:07:19;;;;;;;;;;;19.10;99.90;;;;;;5058839;28;20003;-59
2023/06/09 04:09:44;;;;;;;;;;;19.20;99.90;;;;;;5058880;28;19913;-59
2023/06/09 04:12:10;;;;;;;;;;;19.20;99.90;;;;;;5058446;28;19959;-59
2023/06/09 04:14:36;;;;;;;;;;;19.20;99.90;;;;;;5058306;28;19921;-59
2023/06/09 04:17:02;;;;;;;;;;;19.20;99.90;;;;;;5058769;28;19959;-59
2023/06/09 04:19:27;;;;;;;;;;;19.20;99.90;;;;;;5058431;28;20380;-59
2023/06/09 04:21:53;;;;;;;;;;;19.20;99.90;;;;;;5058668;28;19971;-59
2023/06/09 04:24:19;;;;;;;;;;;19.30;99.90;;;;;;5059077;28;19909;-59
2023/06/09 04:26:47;;;;;;;;;;;19.30;99.90;;;;;;5058461;28;20000;-59
2023/06/09 04:29:13;;;;;;;;;;;19.30;99.90;;;;;;5058541;28;19909;-59
2023/06/09 04:31:42;;;;;;;;;;;19.30;99.90;;;;;;5058552;28;19909;-59
2023/06/09 04:34:12;;;;;;;;;;;19.30;99.90;;;;;;5057828;28;19984;-59
2023/06/09 04:36:40;;;;;;;;;;;19.30;99.90;;;;;;5057835;28;19916;-59
2023/06/09 04:39:07;;;;;;;;;;;19.40;99.90;;;;;;5058187;28;19916;-59
2023/06/09 04:41:33;;;;;;;;;;;19.30;99.90;;;;;;5058078;28;19916;-59
2023/06/09 04:44:05;;;;;;;;;;;19.30;99.90;;;;;;5057844;28;19985;-59
2023/06/09 04:46:41;;;;;;;;;;;19.30;99.90;;;;;;5057769;28;19909;-59
2023/06/09 04:49:09;;;;;;;;;;;19.30;99.90;;;;;;5057814;28;19909;-59
2023/06/09 04:51:47;;;;;;;;;;;19.30;99.90;;;;;;5058138;28;19936;-59
2023/06/09 04:54:13;;;;;;;;;;;19.20;99.90;;;;;;5058239;28;20039;-59
2023/06/09 04:56:40;;;;;;;;;;;19.20;99.90;;;;;;5058085;28;19908;-59
2023/06/09 04:59:06;;;;;;;;;;;19.20;99.90;;;;;;5058030;28;19909;-59
2023/06/09 05:01:33;;;;;;;;;;;19.20;99.90;;;;;;5057711;28;19958;-59
2023/06/09 05:03:59;;;;;;;;;;;19.20;99.90;;;;;;5057825;28;19909;-59
2023/06/09 05:06:25;;;;;;;;;;;19.20;99.90;;;;;;5057825;28;19908;-59
2023/06/09 05:08:51;;;;;;;;;;;19.20;99.90;;;;;;5057775;28;19915;-59
2023/06/09 05:11:17;;;;;;;;;;;19.20;99.90;;;;;;5057027;28;19909;-59
2023/06/09 05:13:42;;;;;;;;;;;19.20;99.90;;;;;;5057559;28;20384;-59
2023/06/09 05:16:08;;;;;;;;;;;19.20;99.90;;;;;;5039837;28;19908;-59
2023/06/09 05:18:33;;;;;;;;;;;19.20;99.90;;;;;;5057613;28;19931;-59
2023/06/09 05:20:59;;;;;;;;;;;19.20;99.90;;;;;;5057673;28;19916;-59
2023/06/09 05:23:25;;;;;;;;;;;19.30;99.90;;;;;;5057688;28;20353;-59
2023/06/09 05:25:51;;;;;;;;;;;19.30;99.90;;;;;;5057585;28;19992;-59
2023/06/09 05:28:16;;;;;;;;;;;19.30;99.90;;;;;;5057819;28;19912;-59
2023/06/09 05:30:42;;;;;;;;;;;19.30;99.90;;;;;;5057565;28;19916;-59
2023/06/09 05:33:07;;;;;;;;;;;19.30;99.90;;;;;;5057476;28;19908;-59
2023/06/09 05:35:33;;;;;;;;;;;19.30;99.90;;;;;;5057523;28;19959;-59
2023/06/09 05:37:59;;;;;;;;;;;19.30;99.90;;;;;;5057481;28;20002;-59
2023/06/09 05:40:24;;;;;;;;;;;19.30;99.90;;;;;;5057928;28;19920;-59
2023/06/09 05:42:50;;;;;;;;;;;19.30;99.90;;;;;;5057641;28;19924;-59
2023/06/09 05:45:16;;;;;;;;;;;19.40;99.90;;;;;;5057458;28;19909;-59
2023/06/09 05:47:42;;;;;;;;;;;19.40;99.90;;;;;;5057799;28;19931;-59
2023/06/09 05:50:07;;;;;;;;;;;19.40;99.90;;;;;;5057401;28;20354;-59
2023/06/09 05:52:33;;;;;;;;;;;19.50;99.90;;;;;;5057714;28;19916;-59
2023/06/09 05:55:00;;;;;;;;;;;19.50;99.90;;;;;;5057297;28;19970;-59
2023/06/09 05:57:29;;;;;;;;;;;19.60;99.90;;;;;;5057155;28;19999;-59
2023/06/09 05:59:57;;;;;;;;;;;19.60;99.90;;;;;;5057082;28;19909;-59
2023/06/09 06:02:23;;;;;;;;;;;19.70;99.90;;;;;;5039345;28;19908;-59
2023/06/09 06:04:49;;;;;;;;;;;19.70;99.90;;;;;;5056958;28;19913;-59
2023/06/09 06:07:20;;;;;;;;;;;19.70;99.90;;;;;;5056880;28;19915;-59
2023/06/09 06:09:46;;;;;;;;;;;19.70;99.90;;;;;;5039409;28;20367;-59
2023/06/09 06:12:11;;;;;;;;;;;19.70;99.90;;;;;;5057412;28;20284;-59
2023/06/09 06:14:37;;;;;;;;;;;19.70;99.90;;;;;;5056987;28;19925;-59
2023/06/09 06:17:03;;;;;;;;;;;19.70;99.90;;;;;;5056977;28;19920;-59
2023/06/09 06:19:28;;;;;;;;;;;19.70;99.90;;;;;;5057002;28;19909;-59
2023/06/09 06:21:54;;;;;;;;;;;19.70;99.90;;;;;;5057472;28;19936;-59
2023/06/09 06:24:20;;;;;;;;;;;19.80;99.90;;;;;;5060563;28;19908;-59
2023/06/09 06:26:45;;;;;;;;;;;19.80;99.90;;;;;;5060978;28;19909;-59
2023/06/09 06:29:11;;;;;;;;;;;19.80;99.90;;;;;;5060611;28;19952;-59
2023/06/09 06:31:37;;;;;;;;;;;19.80;99.90;;;;;;5060532;28;19909;-59
2023/06/09 06:34:02;;;;;;;;;;;19.80;99.90;;;;;;5061008;28;19955;-59
2023/06/09 06:36:28;;;;;;;;;;;19.80;99.90;;;;;;5060416;28;19909;-59
2023/06/09 06:38:53;;;;;;;;;;;19.80;99.90;;;;;;5060635;28;19916;-59
2023/06/09 06:41:19;;;;;;;;;;;19.60;99.90;;;;;;5060615;28;19973;-59
2023/06/09 06:43:45;;;;;;;;;;;19.70;99.90;;;;;;5060680;28;19952;-59
2023/06/09 06:46:11;;;;;;;;;;;19.70;99.90;;;;;;5060260;28;19909;-59
2023/06/09 06:48:39;;;;;;;;;;;19.60;99.90;;;;;;5060325;28;19909;-59
2023/06/09 06:51:08;;;;;;;;;;;19.50;99.90;;;;;;5060187;28;19932;-59
2023/06/09 06:53:35;;;;;;;;;;;19.50;99.90;;;;;;5060370;28;20431;-59
2023/06/09 06:56:00;;;;;;;;;;;19.40;99.90;;;;;;5060259;28;19908;-59
2023/06/09 06:58:28;;;;;;;;;;;19.40;99.90;;;;;;5059964;28;19933;-59
2023/06/09 07:00:56;;;;;;;;;;;19.30;99.90;;;;;;5060119;28;19943;-59
2023/06/09 07:03:26;;;;;;;;;;;19.30;99.90;;;;;;5060237;28;20287;-59
2023/06/09 07:05:52;;;;;;;;;;;19.30;99.90;;;;;;5059928;28;19909;-59
2023/06/09 07:08:18;;;;;;;;;;;19.30;99.90;;;;;;5059840;28;19908;-59
2023/06/09 07:10:44;;;;;;;;;;;19.30;99.90;;;;;;5060099;28;20489;-59
2023/06/09 07:13:10;;;;;;;;;;;19.30;99.90;;;;;;5059605;28;20308;-59
2023/06/09 07:15:37;;;;;;;;;;;19.20;99.90;;;;;;5060246;28;19909;-59
2023/06/09 07:18:05;;;;;;;;;;;19.20;99.90;;;;;;5059484;28;19913;-59
2023/06/09 07:20:31;;;;;;;;;;;19.20;99.90;;;;;;5059958;28;20319;-59
2023/06/09 07:22:57;;;;;;;;;;;19.20;99.90;;;;;;5059731;28;19912;-59
2023/06/09 07:25:22;;;;;;;;;;;19.20;99.90;;;;;;5060112;28;19916;-59
2023/06/09 07:27:48;;;;;;;;;;;19.20;99.90;;;;;;5059792;28;19912;-59
2023/06/09 07:30:14;;;;;;;;;;;19.20;99.90;;;;;;5059700;28;19948;-59
2023/06/09 07:32:39;;;;;;;;;;;19.20;99.90;;;;;;5059797;28;19928;-59
2023/06/09 07:35:05;;;;;;;;;;;19.20;99.90;;;;;;5058718;28;19971;-59
2023/06/09 07:37:38;;;;;;;;;;;19.20;99.90;;;;;;5059482;28;19920;-59
2023/06/09 07:40:04;;;;;;;;;;;19.20;99.90;;;;;;5058876;28;19963;-59
2023/06/09 07:42:30;;;;;;;;;;;19.20;99.90;;;;;;5059467;28;19909;-59
2023/06/09 07:44:56;;;;;;;;;;;19.20;99.90;;;;;;5041242;28;19908;-59
2023/06/09 07:47:21;;;;;;;;;;;19.20;99.90;;;;;;5041268;28;20012;-59
2023/06/09 07:49:47;;;;;;;;;;;19.10;99.90;;;;;;5059334;28;19908;-59
2023/06/09 07:52:12;;;;;;;;;;;19.10;99.90;;;;;;5059550;28;19959;-59
2023/06/09 07:54:38;;;;;;;;;;;19.10;99.90;;;;;;5059041;28;19916;-59
2023/06/09 07:57:04;;;;;;;;;;;19.10;99.90;;;;;;5059092;28;19992;-59
2023/06/09 07:59:29;;;;;;;;;;;19.10;99.90;;;;;;5059016;28;19990;-59
2023/06/09 08:01:55;;;;;;;;;;;19.10;99.90;;;;;;5058988;28;19966;-59
2023/06/09 08:04:21;;;;;;;;;;;19.10;99.90;;;;;;5059025;28;19915;-59
2023/06/09 08:06:47;;;;;;;;;;;19.10;99.90;;;;;;5058717;28;19909;-59
2023/06/09 08:09:13;;;;;;;;;;;19.10;99.90;;;;;;5058812;28;19916;-59
2023/06/09 08:11:39;;;;;;;;;;;19.10;99.90;;;;;;5058910;28;19909;-59
2023/06/09 08:14:06;;;;;;;;;;;19.20;99.90;;;;;;5058498;28;20027;-59
2023/06/09 08:16:32;;;;;;;;;;;19.20;99.90;;;;;;5040621;28;19984;-59
2023/06/09 08:18:57;;;;;;;;;;;19.20;99.90;;;;;;5057028;28;20364;-59
2023/06/09 08:21:23;;;;;;;;;;;19.20;99.90;;;;;;5057761;28;20392;-59
2023/06/09 08:23:48;;;;;;;;;;;19.20;99.90;;;;;;5058307;28;19954;-59
2023/06/09 08:26:14;;;;;;;;;;;19.30;99.90;;;;;;5058520;28;19917;-59
2023/06/09 08:28:42;;;;;;;;;;;19.30;99.90;;;;;;5057588;28;20234;-59
2023/06/09 08:31:08;;;;;;;;;;;19.30;99.90;;;;;;5056916;28;19909;-59
2023/06/09 08:33:35;;;;;;;;;;;19.30;99.90;;;;;;5058252;28;20011;-59
2023/06/09 08:36:04;;;;;;;;;;;19.40;99.90;;;;;;5058598;28;19947;-59
2023/06/09 08:38:34;;;;;;;;;;;19.40;99.90;;;;;;5058157;28;19935;-59
2023/06/09 08:41:22;;;;;;;;;;;19.50;99.90;;;;;;5057929;28;20357;-59
2023/06/09 08:43:47;;;;;;;;;;;19.50;99.90;;;;;;5055934;28;19913;-59
2023/06/09 08:46:15;;;;;;;;;;;19.60;99.90;;;;;;5056320;28;19996;-59
2023/06/09 08:48:49;;;;;;;;;;;19.70;99.90;;;;;;5056828;28;19909;-59
2023/06/09 08:51:15;;;;;;;;;;;19.90;99.90;;;;;;5057327;28;19908;-59
2023/06/09 08:53:41;;;;;;;;;;;20.00;99.90;;;;;;5058291;28;20312;-59
2023/06/09 08:56:07;;;;;;;;;;;20.20;99.90;;;;;;5058151;28;19955;-59
2023/06/09 08:58:33;;;;;;;;;;;20.30;99.90;;;;;;5058070;28;19967;-59
2023/06/09 09:00:59;;;;;;;;;;;20.50;99.90;;;;;;5058132;28;19909;-59
2023/06/09 09:03:25;;;;;;;;;;;20.70;99.90;;;;;;5057928;28;19920;-59
2023/06/09 09:05:50;;;;;;;;;;;20.90;99.90;;;;;;5058279;28;19909;-59
2023/06/09 09:08:17;;;;;;;;;;;20.90;99.90;;;;;;5056886;28;19930;-59
2023/06/09 09:10:45;;;;;;;;;;;21.20;99.90;;;;;;5056490;28;20289;-59
2023/06/09 09:13:11;;;;;;;;;;;21.40;99.90;;;;;;5057428;28;19920;-59
2023/06/09 09:15:40;;;;;;;;;;;21.60;99.90;;;;;;5039854;28;20346;-59
2023/06/09 09:18:09;;;;;;;;;;;21.80;99.90;;;;;;5058050;28;19917;-59
2023/06/09 09:20:35;;;;;;;;;;;22.00;99.90;;;;;;5057864;28;19908;-59
2023/06/09 09:23:02;;;;;;;;;;;22.20;99.90;;;;;;5057461;28;19976;-59
2023/06/09 09:25:28;;;;;;;;;;;22.40;99.90;;;;;;5057780;28;19944;-59
2023/06/09 09:28:20;;;;;;;;;;;22.60;99.90;;;;;;5057688;28;19909;-59
2023/06/09 09:30:46;;;;;;;;;;;22.70;99.90;;;;;;5054427;28;20416;-60
2023/06/09 09:33:12;;;;;;;;;;;22.70;99.90;;;;;;5058112;28;20011;-59
2023/06/09 09:35:39;;;;;;;;;;;22.60;99.90;;;;;;5057744;28;20009;-59
2023/06/09 09:38:10;;;;;;;;;;;22.50;99.90;;;;;;5057649;28;20054;-59
2023/06/09 09:40:40;;;;;;;;;;;22.50;99.90;;;;;;5057543;28;19908;-58
2023/06/09 09:43:08;;;;;;;;;;;22.50;99.90;;;;;;5057356;28;19909;-58
2023/06/09 09:45:37;;;;;;;;;;;22.50;99.90;;;;;;5057422;28;19909;-59
2023/06/09 09:48:08;;;;;;;;;;;22.40;99.90;;;;;;5057246;28;20358;-59
2023/06/09 09:50:36;;;;;;;;;;;22.20;99.90;;;;;;5057629;28;19916;-58
2023/06/09 09:53:02;;;;;;;;;;;22.10;99.90;;;;;;5057736;28;19916;-59
2023/06/09 09:55:28;;;;;;;;;;;22.10;99.90;;;;;;5057321;28;19938;-59
2023/06/09 09:57:54;;;;;;;;;;;22.00;99.90;;;;;;5059039;28;19948;-59
2023/06/09 10:00:20;;;;;;;;;;;22.00;99.90;;;;;;5043378;28;19909;-58
2023/06/09 10:02:50;;;;;;;;;;;21.90;99.90;;;;;;5060297;28;20019;-58
2023/06/09 10:05:17;;;;;;;;;;;22.00;99.90;;;;;;5060880;28;19991;-59
2023/06/09 10:07:44;;;;;;;;;;;22.10;99.90;;;;;;5061306;28;19909;-59
2023/06/09 10:10:09;;;;;;;;;;;22.10;99.90;;;;;;5061234;28;19959;-59
2023/06/09 10:12:36;;;;;;;;;;;22.20;99.90;;;;;;5061284;28;19912;-59
2023/06/09 10:15:02;;;;;;;;;;;22.30;99.90;;;;;;5060688;28;19980;-59
2023/06/09 10:17:28;;;;;;;;;;;22.30;99.90;;;;;;5061023;28;19913;-59
2023/06/09 10:19:55;;;;;;;;;;;22.20;99.90;;;;;;5061182;28;19916;-59
2023/06/09 10:22:21;;;;;;;;;;;22.20;99.90;;;;;;5061612;28;19909;-59
2023/06/09 10:24:47;;;;;;;;;;;22.20;99.90;;;;;;5061037;28;20332;-59
2023/06/09 10:27:13;;;;;;;;;;;22.10;99.90;;;;;;5060748;28;19974;-59
2023/06/09 10:29:38;;;;;;;;;;;22.10;99.90;;;;;;5060834;28;19909;-59
2023/06/09 10:32:05;;;;;;;;;;;22.10;99.90;;;;;;5060598;28;20368;-59
2023/06/09 10:34:34;;;;;;;;;;;22.20;99.90;;;;;;5060783;28;19936;-59
2023/06/09 10:37:00;;;;;;;;;;;22.10;99.90;;;;;;5060609;28;19916;-59
2023/06/09 10:39:30;;;;;;;;;;;22.10;99.90;;;;;;5060974;28;20364;-59
2023/06/09 10:42:10;;;;;;;;;;;22.00;99.90;;;;;;5060679;28;20004;-59
2023/06/09 10:44:53;;;;;;;;;;;22.00;99.90;;;;;;5060397;28;19909;-58
2023/06/09 10:47:37;;;;;;;;;;;22.10;99.90;;;;;;5060617;28;19909;-59
2023/06/09 10:50:03;;;;;;;;;;;22.20;99.90;;;;;;5060161;28;19974;-58
2023/06/09 10:52:34;;;;;;;;;;;22.20;99.90;;;;;;5060466;28;19909;-58
2023/06/09 10:55:13;;;;;;;;;;;22.10;99.90;;;;;;5060395;28;19909;-58
2023/06/09 10:57:39;;;;;;;;;;;21.90;99.90;;;;;;5059992;28;19912;-59
2023/06/09 11:00:11;;;;;;;;;;;22.10;99.90;;;;;;5060219;28;19916;-59
2023/06/09 11:02:37;;;;;;;;;;;22.10;99.90;;;;;;5060100;28;19916;-59
2023/06/09 11:05:04;;;;;;;;;;;22.40;99.90;;;;;;5060061;28;19909;-58
2023/06/09 11:07:33;;;;;;;;;;;22.60;99.90;;;;;;5059688;28;19970;-59
2023/06/09 11:09:58;;;;;;;;;;;22.90;99.90;;;;;;5058295;28;20424;-59
2023/06/09 11:12:49;;;;;;;;;;;23.20;99.90;;;;;;5060122;28;19990;-58
2023/06/09 11:15:16;;;;;;;;;;;23.30;99.90;;;;;;5060052;28;19921;-59
2023/06/09 11:17:46;;;;;;;;;;;23.60;99.90;;;;;;5059471;28;19951;-59
2023/06/09 11:20:14;;;;;;;;;;;23.80;99.90;;;;;;5060123;28;19908;-59
2023/06/09 11:22:44;;;;;;;;;;;23.90;99.90;;;;;;5059645;28;19909;-59
2023/06/09 11:25:18;;;;;;;;;;;24.20;99.90;;;;;;5059906;28;19909;-59
2023/06/09 11:27:48;;;;;;;;;;;24.40;99.90;;;;;;5059761;28;19963;-59
2023/06/09 11:30:17;;;;;;;;;;;24.60;99.90;;;;;;5059992;28;19909;-59
2023/06/09 11:33:03;;;;;;;;;;;24.80;99.90;;;;;;5059488;28;20299;-59
2023/06/09 11:35:28;;;;;;;;;;;24.40;99.90;;;;;;5059417;28;20357;-59
2023/06/09 11:38:05;;;;;;;;;;;24.40;99.90;;;;;;5059622;28;19917;-61
2023/06/09 11:40:35;;;;;;;;;;;24.40;99.90;;;;;;5059318;28;19942;-61
2023/06/09 11:43:01;;;;;;;;;;;24.20;99.90;;;;;;5059848;28;19909;-61
2023/06/09 11:45:28;;;;;;;;;;;24.30;99.90;;;;;;5059225;28;19913;-61
2023/06/09 11:47:56;;;;;;;;;;;24.80;99.90;;;;;;5059191;28;20404;-61
2023/06/09 11:50:23;;;;;;;;;;;25.60;99.90;;;;;;5059387;28;19913;-61
2023/06/09 11:53:00;;;;;;;;;;;26.40;99.90;;;;;;5059183;28;19916;-61
2023/06/09 11:55:26;;;;;;;;;;;26.80;99.90;;;;;;5059211;28;20315;-61
2023/06/09 11:57:52;;;;;;;;;;;27.40;99.90;;;;;;5059157;28;19912;-61
2023/06/09 12:00:18;;;;;;;;;;;27.70;99.90;;;;;;5059075;28;19908;-61
2023/06/09 12:02:47;;;;;;;;;;;28.00;99.90;;;;;;5058952;28;19909;-61
2023/06/09 12:05:13;;;;;;;;;;;28.00;99.90;;;;;;5059122;28;19909;-61
2023/06/09 12:07:45;;;;;;;;;;;28.70;99.90;;;;;;5059249;28;19932;-61
2023/06/09 12:10:12;;;;;;;;;;;29.60;99.90;;;;;;5058977;28;19909;-61
2023/06/09 12:12:45;;;;;;;;;;;29.40;97.30;;;;;;5058837;28;19909;-61
2023/06/09 12:15:11;;;;;;;;;;;29.90;96.90;;;;;;5058993;28;19924;-61
2023/06/09 12:17:37;;;;;;;;;;;30.60;95.30;;;;;;5058584;28;20350;-61
2023/06/09 12:20:38;;;;;;;;;;;30.80;94.50;;;;;;5058507;28;19909;-61
2023/06/09 12:23:14;;;;;;;;;;;31.20;99.00;;;;;;4997570;28;19909;-62
2023/06/09 12:25:40;;;;;;;;;;;31.60;91.20;;;;;;5049716;28;19995;-61
2023/06/09 12:28:12;;;;;;;;;;;31.80;76.60;;;;;;5058226;28;19947;-61
2023/06/09 12:30:39;;;;;;;;;;;31.20;91.00;;;;;;5058067;28;19931;-61
2023/06/09 12:33:08;;;;;;;;;;;29.20;75.80;;;;;;5057853;28;20319;-61
2023/06/09 12:35:37;;;;;;;;;;;28.60;87.20;;;;;;5058166;28;19932;-61
2023/06/09 12:38:16;;;;;;;;;;;28.00;91.10;;;;;;5058363;28;19942;-61
2023/06/09 12:40:52;;;;;;;;;;;28.30;89.60;;;;;;5058595;28;19916;-61
2023/06/09 12:43:27;;;;;;;;;;;28.80;97.10;;;;;;5058242;28;20007;-61
2023/06/09 12:45:54;;;;;;;;;;;29.60;92.20;;;;;;5058594;28;19915;-61
2023/06/09 12:48:20;;;;;;;;;;;30.10;81.10;;;;;;5058424;28;19916;-61
2023/06/09 12:50:45;;;;;;;;;;;30.30;82.00;;;;;;5058306;28;19909;-61
2023/06/09 12:53:11;;;;;;;;;;;30.30;85.20;;;;;;5058456;28;19940;-61
2023/06/09 12:55:38;;;;;;;;;;;30.30;80.10;;;;;;5058278;28;19909;-61
2023/06/09 12:58:04;;;;;;;;;;;30.20;82.20;;;;;;5057730;28;20376;-61
2023/06/09 13:00:30;;;;;;;;;;;30.50;85.20;;;;;;5058337;28;19909;-61
2023/06/09 13:02:57;;;;;;;;;;;30.30;78.80;;;;;;5057723;28;19962;-61
2023/06/09 13:05:23;;;;;;;;;;;30.70;80.50;;;;;;5057893;28;19915;-61
2023/06/09 13:07:49;;;;;;;;;;;30.90;90.20;;;;;;5058111;28;19916;-61
2023/06/09 13:10:15;;;;;;;;;;;31.20;85.10;;;;;;5058006;28;19934;-61
2023/06/09 13:12:41;;;;;;;;;;;31.30;79.50;;;;;;5058166;28;19980;-61
2023/06/09 13:15:07;;;;;;;;;;;31.20;80.50;;;;;;5057647;28;19928;-61
2023/06/09 13:17:32;;;;;;;;;;;30.60;72.00;;;;;;5057990;28;19913;-61
2023/06/09 13:19:58;;;;;;;;;;;30.50;73.00;;;;;;5058065;28;19916;-61
2023/06/09 13:22:23;;;;;;;;;;;30.50;84.20;;;;;;5057820;28;20333;-61
2023/06/09 13:24:49;;;;;;;;;;;30.40;72.50;;;;;;5057531;28;19913;-61
2023/06/09 13:27:15;;;;;;;;;;;29.70;69.10;;;;;;5057324;28;19913;-61
2023/06/09 13:29:41;;;;;;;;;;;29.70;74.20;;;;;;5057439;28;19958;-61
2023/06/09 13:32:07;;;;;;;;;;;29.70;77.30;;;;;;5057712;28;19909;-61
2023/06/09 13:34:32;;;;;;;;;;;29.60;70.70;;;;;;5061872;28;19932;-61
2023/06/09 13:36:58;;;;;;;;;;;29.60;79.10;;;;;;5061743;28;19944;-61
2023/06/09 13:39:23;;;;;;;;;;;29.90;77.40;;;;;;5061579;28;19908;-61
2023/06/09 13:41:49;;;;;;;;;;;30.00;76.70;;;;;;5061959;28;19916;-61
2023/06/09 13:44:15;;;;;;;;;;;29.70;76.10;;;;;;5061982;28;19919;-61
2023/06/09 13:46:40;;;;;;;;;;;29.30;74.40;;;;;;5043530;28;19909;-61
2023/06/09 13:49:06;;;;;;;;;;;28.90;77.10;;;;;;5061481;28;19916;-61
2023/06/09 13:51:34;;;;;;;;;;;28.70;81.40;;;;;;5061533;28;19958;-61
2023/06/09 13:53:59;;;;;;;;;;;28.60;79.50;;;;;;5061511;28;19909;-61
2023/06/09 13:56:25;;;;;;;;;;;28.60;79.40;;;;;;5061413;28;19919;-61
2023/06/09 13:58:51;;;;;;;;;;;28.80;84.10;;;;;;5060968;28;19913;-61
2023/06/09 14:01:17;;;;;;;;;;;28.90;79.70;;;;;;5061228;28;19999;-61
2023/06/09 14:03:42;;;;;;;;;;;29.10;81.70;;;;;;5061400;28;19916;-61
2023/06/09 14:06:08;;;;;;;;;;;29.00;77.60;;;;;;5061104;28;19909;-61
2023/06/09 14:08:34;;;;;;;;;;;28.90;82.60;;;;;;5061304;28;19940;-61
2023/06/09 14:10:59;;;;;;;;;;;28.70;79.60;;;;;;5061033;28;19909;-61
2023/06/09 14:13:25;;;;;;;;;;;28.60;79.40;;;;;;5060672;28;19925;-61
2023/06/09 14:15:51;;;;;;;;;;;28.60;76.50;;;;;;5061089;28;19909;-61
2023/06/09 14:18:18;;;;;;;;;;;28.20;77.90;;;;;;5061057;28;19912;-61